sensor_id;sensor_type;location;lat;lon;timestamp;temperature;humidity
4520;DHT22;2272;49.226;8.108;2022-07-18T00:02:20;19.10;52.80
4520;DHT22;2272;49.226;8.108;2022-07-18T00:04:47;19.10;53.00
4520;DHT22;2272;49.226;8.108;2022-07-18T00:07:13;19.10;53.30
4520;DHT22;2272;49.226;8.108;2022-07-18T00:09:41;19.10;53.40
4520;DHT22;2272;49.226;8.108;2022-07-18T00:12:10;19.00;53.60
4520;DHT22;2272;49.226;8.108;2022-07-18T00:14:38;18.90;53.80
4520;DHT22;2272;49.226;8.108;2022-07-18T00:17:05;18.80;54.00
4520;DHT22;2272;49.226;8.108;2022-07-18T00:19:32;18.80;54.20
4520;DHT22;2272;49.226;8.108;2022-07-18T00:21:59;18.80;54.50
4520;DHT22;2272;49.226;8.108;2022-07-18T00:24:27;18.70;54.60
4520;DHT22;2272;49.226;8.108;2022-07-18T00:26:54;18.60;54.60
4520;DHT22;2272;49.226;8.108;2022-07-18T00:29:22;18.60;54.60
4520;DHT22;2272;49.226;8.108;2022-07-18T00:31:49;18.60;54.70
4520;DHT22;2272;49.226;8.108;2022-07-18T00:34:15;18.60;54.90
4520;DHT22;2272;49.226;8.108;2022-07-18T00:36:42;18.50;55.20
4520;DHT22;2272;49.226;8.108;2022-07-18T00:39:09;18.50;55.40
4520;DHT22;2272;49.226;8.108;2022-07-18T00:41:36;18.40;55.60
4520;DHT22;2272;49.226;8.108;2022-07-18T00:44:03;18.40;55.70
4520;DHT22;2272;49.226;8.108;2022-07-18T00:46:31;18.30;55.60
4520;DHT22;2272;49.226;8.108;2022-07-18T00:48:58;18.40;55.60
4520;DHT22;2272;49.226;8.108;2022-07-18T00:51:24;18.30;55.50
4520;DHT22;2272;49.226;8.108;2022-07-18T00:53:51;18.40;55.60
4520;DHT22;2272;49.226;8.108;2022-07-18T00:56:19;18.40;55.60
4520;DHT22;2272;49.226;8.108;2022-07-18T00:58:47;18.40;55.50
4520;DHT22;2272;49.226;8.108;2022-07-18T01:01:13;18.40;55.50
4520;DHT22;2272;49.226;8.108;2022-07-18T01:03:59;18.40;55.50
4520;DHT22;2272;49.226;8.108;2022-07-18T01:06:26;18.40;55.70
4520;DHT22;2272;49.226;8.108;2022-07-18T01:08:53;18.40;55.90
4520;DHT22;2272;49.226;8.108;2022-07-18T01:11:19;18.30;56.10
4520;DHT22;2272;49.226;8.108;2022-07-18T01:13:47;18.30;56.20
4520;DHT22;2272;49.226;8.108;2022-07-18T01:16:14;18.30;56.90
4520;DHT22;2272;49.226;8.108;2022-07-18T01:18:44;18.30;56.30
4520;DHT22;2272;49.226;8.108;2022-07-18T01:21:12;18.20;56.30
4520;DHT22;2272;49.226;8.108;2022-07-18T01:23:40;18.20;56.30
4520;DHT22;2272;49.226;8.108;2022-07-18T01:26:07;18.30;56.40
4520;DHT22;2272;49.226;8.108;2022-07-18T01:28:34;18.30;56.30
4520;DHT22;2272;49.226;8.108;2022-07-18T01:31:01;18.30;56.20
4520;DHT22;2272;49.226;8.108;2022-07-18T01:33:30;18.30;56.20
4520;DHT22;2272;49.226;8.108;2022-07-18T01:35:58;18.40;56.20
4520;DHT22;2272;49.226;8.108;2022-07-18T01:38:26;18.40;56.10
4520;DHT22;2272;49.226;8.108;2022-07-18T01:40:53;18.40;56.00
4520;DHT22;2272;49.226;8.108;2022-07-18T01:43:21;18.40;56.20
4520;DHT22;2272;49.226;8.108;2022-07-18T01:45:47;18.40;56.50
4520;DHT22;2272;49.226;8.108;2022-07-18T01:48:14;18.40;56.50
4520;DHT22;2272;49.226;8.108;2022-07-18T01:50:41;18.40;56.60
4520;DHT22;2272;49.226;8.108;2022-07-18T01:53:08;18.30;56.70
4520;DHT22;2272;49.226;8.108;2022-07-18T01:55:36;18.30;56.90
4520;DHT22;2272;49.226;8.108;2022-07-18T01:58:03;18.30;57.20
4520;DHT22;2272;49.226;8.108;2022-07-18T02:00:30;18.20;57.40
4520;DHT22;2272;49.226;8.108;2022-07-18T02:02:57;18.10;57.70
4520;DHT22;2272;49.226;8.108;2022-07-18T02:05:23;18.00;57.90
4520;DHT22;2272;49.226;8.108;2022-07-18T02:07:50;18.00;57.90
4520;DHT22;2272;49.226;8.108;2022-07-18T02:10:19;18.00;58.10
4520;DHT22;2272;49.226;8.108;2022-07-18T02:12:48;18.00;58.10
4520;DHT22;2272;49.226;8.108;2022-07-18T02:15:15;17.90;58.20
4520;DHT22;2272;49.226;8.108;2022-07-18T02:17:43;17.80;58.20
4520;DHT22;2272;49.226;8.108;2022-07-18T02:20:11;17.80;58.20
4520;DHT22;2272;49.226;8.108;2022-07-18T02:22:38;17.80;58.40
4520;DHT22;2272;49.226;8.108;2022-07-18T02:25:06;17.70;58.60
4520;DHT22;2272;49.226;8.108;2022-07-18T02:27:33;17.70;58.80
4520;DHT22;2272;49.226;8.108;2022-07-18T02:30:01;17.60;59.00
4520;DHT22;2272;49.226;8.108;2022-07-18T02:32:27;17.60;59.00
4520;DHT22;2272;49.226;8.108;2022-07-18T02:34:54;17.60;59.50
4520;DHT22;2272;49.226;8.108;2022-07-18T02:37:21;17.50;59.40
4520;DHT22;2272;49.226;8.108;2022-07-18T02:39:47;17.40;60.80
4520;DHT22;2272;49.226;8.108;2022-07-18T02:42:14;17.30;61.80
4520;DHT22;2272;49.226;8.108;2022-07-18T02:44:41;17.20;63.10
4520;DHT22;2272;49.226;8.108;2022-07-18T02:47:09;17.00;63.70
4520;DHT22;2272;49.226;8.108;2022-07-18T02:49:35;16.90;63.70
4520;DHT22;2272;49.226;8.108;2022-07-18T02:52:06;16.80;64.00
4520;DHT22;2272;49.226;8.108;2022-07-18T02:54:35;16.70;63.80
4520;DHT22;2272;49.226;8.108;2022-07-18T02:57:02;16.70;63.50
4520;DHT22;2272;49.226;8.108;2022-07-18T02:59:29;16.70;63.20
4520;DHT22;2272;49.226;8.108;2022-07-18T03:01:56;16.70;63.10
4520;DHT22;2272;49.226;8.108;2022-07-18T03:04:24;16.70;62.90
4520;DHT22;2272;49.226;8.108;2022-07-18T03:06:52;16.60;62.80
4520;DHT22;2272;49.226;8.108;2022-07-18T03:09:19;16.60;63.10
4520;DHT22;2272;49.226;8.108;2022-07-18T03:11:46;16.50;63.40
4520;DHT22;2272;49.226;8.108;2022-07-18T03:14:13;16.50;63.80
4520;DHT22;2272;49.226;8.108;2022-07-18T03:16:40;16.30;63.90
4520;DHT22;2272;49.226;8.108;2022-07-18T03:19:07;16.30;64.40
4520;DHT22;2272;49.226;8.108;2022-07-18T03:21:35;16.20;64.60
4520;DHT22;2272;49.226;8.108;2022-07-18T03:24:02;16.20;64.70
4520;DHT22;2272;49.226;8.108;2022-07-18T03:26:29;16.20;64.80
4520;DHT22;2272;49.226;8.108;2022-07-18T03:28:56;16.20;64.80
4520;DHT22;2272;49.226;8.108;2022-07-18T03:31:23;16.10;65.00
4520;DHT22;2272;49.226;8.108;2022-07-18T03:33:49;16.10;65.90
4520;DHT22;2272;49.226;8.108;2022-07-18T03:36:16;16.20;65.10
4520;DHT22;2272;49.226;8.108;2022-07-18T03:38:44;16.10;64.90
4520;DHT22;2272;49.226;8.108;2022-07-18T03:41:12;16.20;64.80
4520;DHT22;2272;49.226;8.108;2022-07-18T03:43:39;16.20;64.70
4520;DHT22;2272;49.226;8.108;2022-07-18T03:46:07;16.20;64.70
4520;DHT22;2272;49.226;8.108;2022-07-18T03:48:34;16.30;64.90
4520;DHT22;2272;49.226;8.108;2022-07-18T03:51:02;16.30;64.80
4520;DHT22;2272;49.226;8.108;2022-07-18T03:53:29;16.30;64.70
4520;DHT22;2272;49.226;8.108;2022-07-18T03:55:58;16.30;64.80
4520;DHT22;2272;49.226;8.108;2022-07-18T03:58:24;16.30;64.90
4520;DHT22;2272;49.226;8.108;2022-07-18T04:00:51;16.30;65.10
4520;DHT22;2272;49.226;8.108;2022-07-18T04:03:18;16.30;65.20
4520;DHT22;2272;49.226;8.108;2022-07-18T04:05:45;16.30;65.20
4520;DHT22;2272;49.226;8.108;2022-07-18T04:08:12;16.30;65.40
4520;DHT22;2272;49.226;8.108;2022-07-18T04:10:38;16.30;65.60
4520;DHT22;2272;49.226;8.108;2022-07-18T04:13:07;16.30;65.90
4520;DHT22;2272;49.226;8.108;2022-07-18T04:15:35;16.40;66.10
4520;DHT22;2272;49.226;8.108;2022-07-18T04:18:03;16.40;66.10
4520;DHT22;2272;49.226;8.108;2022-07-18T04:20:30;16.40;66.10
4520;DHT22;2272;49.226;8.108;2022-07-18T04:22:58;16.50;66.20
4520;DHT22;2272;49.226;8.108;2022-07-18T04:25:28;16.50;66.00
4520;DHT22;2272;49.226;8.108;2022-07-18T04:27:55;16.60;66.00
4520;DHT22;2272;49.226;8.108;2022-07-18T04:30:25;16.60;65.80
4520;DHT22;2272;49.226;8.108;2022-07-18T04:32:53;16.70;65.70
4520;DHT22;2272;49.226;8.108;2022-07-18T04:35:20;16.80;65.40
4520;DHT22;2272;49.226;8.108;2022-07-18T04:37:47;16.90;65.30
4520;DHT22;2272;49.226;8.108;2022-07-18T04:40:14;17.00;64.80
4520;DHT22;2272;49.226;8.108;2022-07-18T04:42:42;17.20;64.70
4520;DHT22;2272;49.226;8.108;2022-07-18T04:45:09;17.30;64.60
4520;DHT22;2272;49.226;8.108;2022-07-18T04:47:38;17.40;64.50
4520;DHT22;2272;49.226;8.108;2022-07-18T04:50:05;17.50;64.40
4520;DHT22;2272;49.226;8.108;2022-07-18T04:52:36;17.60;64.20
4520;DHT22;2272;49.226;8.108;2022-07-18T04:55:04;17.80;64.10
4520;DHT22;2272;49.226;8.108;2022-07-18T04:57:31;18.00;64.00
4520;DHT22;2272;49.226;8.108;2022-07-18T04:59:58;18.10;63.70
4520;DHT22;2272;49.226;8.108;2022-07-18T05:02:24;18.30;63.80
4520;DHT22;2272;49.226;8.108;2022-07-18T05:04:52;18.50;63.40
4520;DHT22;2272;49.226;8.108;2022-07-18T05:07:19;18.70;63.10
4520;DHT22;2272;49.226;8.108;2022-07-18T05:09:46;18.80;62.50
4520;DHT22;2272;49.226;8.108;2022-07-18T05:12:12;19.00;62.30
4520;DHT22;2272;49.226;8.108;2022-07-18T05:14:39;19.20;62.20
4520;DHT22;2272;49.226;8.108;2022-07-18T05:17:06;19.30;62.00
4520;DHT22;2272;49.226;8.108;2022-07-18T05:19:32;19.40;62.70
4520;DHT22;2272;49.226;8.108;2022-07-18T05:22:00;19.50;62.00
4520;DHT22;2272;49.226;8.108;2022-07-18T05:24:27;19.60;62.10
4520;DHT22;2272;49.226;8.108;2022-07-18T05:26:54;19.70;62.40
4520;DHT22;2272;49.226;8.108;2022-07-18T05:29:20;19.80;62.50
4520;DHT22;2272;49.226;8.108;2022-07-18T05:31:47;19.80;62.70
4520;DHT22;2272;49.226;8.108;2022-07-18T05:34:14;19.90;63.00
4520;DHT22;2272;49.226;8.108;2022-07-18T05:36:40;20.00;63.20
4520;DHT22;2272;49.226;8.108;2022-07-18T05:39:08;20.10;63.80
4520;DHT22;2272;49.226;8.108;2022-07-18T05:41:35;20.80;63.20
4520;DHT22;2272;49.226;8.108;2022-07-18T05:46:30;22.40;58.70
4520;DHT22;2272;49.226;8.108;2022-07-18T05:48:56;22.90;58.80
4520;DHT22;2272;49.226;8.108;2022-07-18T05:51:23;23.20;58.00
4520;DHT22;2272;49.226;8.108;2022-07-18T05:53:50;23.60;58.00
4520;DHT22;2272;49.226;8.108;2022-07-18T05:56:18;23.60;57.10
4520;DHT22;2272;49.226;8.108;2022-07-18T05:58:45;23.60;56.40
4520;DHT22;2272;49.226;8.108;2022-07-18T06:01:11;23.40;56.70
4520;DHT22;2272;49.226;8.108;2022-07-18T06:03:42;23.10;57.60
4520;DHT22;2272;49.226;8.108;2022-07-18T06:06:09;23.10;58.00
4520;DHT22;2272;49.226;8.108;2022-07-18T06:08:35;23.10;58.20
4520;DHT22;2272;49.226;8.108;2022-07-18T06:11:02;23.10;58.70
4520;DHT22;2272;49.226;8.108;2022-07-18T06:13:33;22.90;57.90
4520;DHT22;2272;49.226;8.108;2022-07-18T06:16:00;22.90;57.90
4520;DHT22;2272;49.226;8.108;2022-07-18T06:18:27;22.80;58.10
4520;DHT22;2272;49.226;8.108;2022-07-18T06:20:53;22.90;57.90
4520;DHT22;2272;49.226;8.108;2022-07-18T06:23:20;23.10;58.00
4520;DHT22;2272;49.226;8.108;2022-07-18T06:25:47;23.30;57.90
4520;DHT22;2272;49.226;8.108;2022-07-18T06:28:13;23.40;57.70
4520;DHT22;2272;49.226;8.108;2022-07-18T06:30:41;23.40;57.70
4520;DHT22;2272;49.226;8.108;2022-07-18T06:33:08;23.30;57.60
4520;DHT22;2272;49.226;8.108;2022-07-18T06:35:36;23.00;58.20
4520;DHT22;2272;49.226;8.108;2022-07-18T06:38:02;22.80;58.90
4520;DHT22;2272;49.226;8.108;2022-07-18T06:40:29;22.70;59.60
4520;DHT22;2272;49.226;8.108;2022-07-18T06:42:56;22.70;59.70
4520;DHT22;2272;49.226;8.108;2022-07-18T06:45:22;22.60;59.00
4520;DHT22;2272;49.226;8.108;2022-07-18T06:47:51;22.50;58.70
4520;DHT22;2272;49.226;8.108;2022-07-18T06:50:18;22.40;58.20
4520;DHT22;2272;49.226;8.108;2022-07-18T06:52:45;22.40;58.30
4520;DHT22;2272;49.226;8.108;2022-07-18T06:55:13;22.30;58.40
4520;DHT22;2272;49.226;8.108;2022-07-18T06:57:40;22.30;58.70
4520;DHT22;2272;49.226;8.108;2022-07-18T07:00:09;22.30;58.80
4520;DHT22;2272;49.226;8.108;2022-07-18T07:02:42;22.40;58.30
4520;DHT22;2272;49.226;8.108;2022-07-18T07:05:11;22.50;58.10
4520;DHT22;2272;49.226;8.108;2022-07-18T07:07:37;22.50;56.80
4520;DHT22;2272;49.226;8.108;2022-07-18T07:10:05;22.50;57.00
4520;DHT22;2272;49.226;8.108;2022-07-18T07:12:38;22.60;56.40
4520;DHT22;2272;49.226;8.108;2022-07-18T07:15:06;22.70;55.60
4520;DHT22;2272;49.226;8.108;2022-07-18T07:17:33;22.90;56.20
4520;DHT22;2272;49.226;8.108;2022-07-18T07:20:00;23.00;55.20
4520;DHT22;2272;49.226;8.108;2022-07-18T07:22:28;23.10;55.10
4520;DHT22;2272;49.226;8.108;2022-07-18T07:24:55;23.20;55.00
4520;DHT22;2272;49.226;8.108;2022-07-18T07:27:22;23.20;54.60
4520;DHT22;2272;49.226;8.108;2022-07-18T07:29:49;23.30;54.00
4520;DHT22;2272;49.226;8.108;2022-07-18T07:32:15;23.20;53.10
4520;DHT22;2272;49.226;8.108;2022-07-18T07:34:42;23.20;53.70
4520;DHT22;2272;49.226;8.108;2022-07-18T07:37:09;23.30;54.20
4520;DHT22;2272;49.226;8.108;2022-07-18T07:39:37;23.40;54.50
4520;DHT22;2272;49.226;8.108;2022-07-18T07:42:03;23.50;54.60
4520;DHT22;2272;49.226;8.108;2022-07-18T07:44:30;23.70;54.20
4520;DHT22;2272;49.226;8.108;2022-07-18T07:46:57;23.80;54.60
4520;DHT22;2272;49.226;8.108;2022-07-18T07:49:24;23.90;54.30
4520;DHT22;2272;49.226;8.108;2022-07-18T07:51:51;24.00;54.00
4520;DHT22;2272;49.226;8.108;2022-07-18T07:54:18;24.00;54.30
4520;DHT22;2272;49.226;8.108;2022-07-18T07:56:46;24.20;53.30
4520;DHT22;2272;49.226;8.108;2022-07-18T07:59:12;24.30;53.00
4520;DHT22;2272;49.226;8.108;2022-07-18T08:01:39;24.30;52.40
4520;DHT22;2272;49.226;8.108;2022-07-18T08:04:06;24.40;53.90
4520;DHT22;2272;49.226;8.108;2022-07-18T08:06:32;24.50;54.00
4520;DHT22;2272;49.226;8.108;2022-07-18T08:08:59;24.60;53.50
4520;DHT22;2272;49.226;8.108;2022-07-18T08:11:26;24.60;53.60
4520;DHT22;2272;49.226;8.108;2022-07-18T08:13:54;24.70;53.90
4520;DHT22;2272;49.226;8.108;2022-07-18T08:16:21;24.80;53.50
4520;DHT22;2272;49.226;8.108;2022-07-18T08:18:48;24.90;54.10
4520;DHT22;2272;49.226;8.108;2022-07-18T08:21:15;25.00;52.90
4520;DHT22;2272;49.226;8.108;2022-07-18T08:23:41;25.10;53.10
4520;DHT22;2272;49.226;8.108;2022-07-18T08:26:10;25.40;53.80
4520;DHT22;2272;49.226;8.108;2022-07-18T08:28:37;25.60;53.60
4520;DHT22;2272;49.226;8.108;2022-07-18T08:31:05;25.70;52.00
4520;DHT22;2272;49.226;8.108;2022-07-18T08:33:32;25.70;51.70
4520;DHT22;2272;49.226;8.108;2022-07-18T08:35:58;25.80;52.10
4520;DHT22;2272;49.226;8.108;2022-07-18T08:38:25;25.90;52.40
4520;DHT22;2272;49.226;8.108;2022-07-18T08:40:52;26.10;52.60
4520;DHT22;2272;49.226;8.108;2022-07-18T08:43:19;26.20;52.40
4520;DHT22;2272;49.226;8.108;2022-07-18T08:45:47;26.30;52.50
4520;DHT22;2272;49.226;8.108;2022-07-18T08:48:16;26.30;51.80
4520;DHT22;2272;49.226;8.108;2022-07-18T08:50:44;26.30;51.80
4520;DHT22;2272;49.226;8.108;2022-07-18T08:53:11;26.30;51.60
4520;DHT22;2272;49.226;8.108;2022-07-18T08:55:38;26.40;51.50
4520;DHT22;2272;49.226;8.108;2022-07-18T08:58:05;26.50;49.90
4520;DHT22;2272;49.226;8.108;2022-07-18T09:00:33;26.50;49.90
4520;DHT22;2272;49.226;8.108;2022-07-18T09:03:01;26.70;50.70
4520;DHT22;2272;49.226;8.108;2022-07-18T09:05:31;26.80;51.60
4520;DHT22;2272;49.226;8.108;2022-07-18T09:08:08;26.90;51.40
4520;DHT22;2272;49.226;8.108;2022-07-18T09:10:41;27.20;50.60
4520;DHT22;2272;49.226;8.108;2022-07-18T09:13:08;27.30;48.70
4520;DHT22;2272;49.226;8.108;2022-07-18T09:15:34;27.40;47.70
4520;DHT22;2272;49.226;8.108;2022-07-18T09:18:26;27.40;48.00
4520;DHT22;2272;49.226;8.108;2022-07-18T09:20:59;27.60;49.60
4520;DHT22;2272;49.226;8.108;2022-07-18T09:23:27;27.90;49.20
4520;DHT22;2272;49.226;8.108;2022-07-18T09:25:54;28.10;46.90
4520;DHT22;2272;49.226;8.108;2022-07-18T09:28:21;28.00;47.10
4520;DHT22;2272;49.226;8.108;2022-07-18T09:30:48;28.00;48.20
4520;DHT22;2272;49.226;8.108;2022-07-18T09:33:14;28.20;46.50
4520;DHT22;2272;49.226;8.108;2022-07-18T09:35:43;28.20;46.30
4520;DHT22;2272;49.226;8.108;2022-07-18T09:38:13;28.40;47.20
4520;DHT22;2272;49.226;8.108;2022-07-18T09:40:46;28.60;48.20
4520;DHT22;2272;49.226;8.108;2022-07-18T09:43:15;28.90;47.10
4520;DHT22;2272;49.226;8.108;2022-07-18T09:45:44;29.00;46.40
4520;DHT22;2272;49.226;8.108;2022-07-18T09:48:14;28.90;46.80
4520;DHT22;2272;49.226;8.108;2022-07-18T09:50:42;28.70;47.30
4520;DHT22;2272;49.226;8.108;2022-07-18T09:53:15;28.70;47.90
4520;DHT22;2272;49.226;8.108;2022-07-18T09:55:46;28.90;48.50
4520;DHT22;2272;49.226;8.108;2022-07-18T09:58:19;29.20;48.50
4520;DHT22;2272;49.226;8.108;2022-07-18T10:00:46;29.60;48.00
4520;DHT22;2272;49.226;8.108;2022-07-18T10:03:13;29.70;47.00
4520;DHT22;2272;49.226;8.108;2022-07-18T10:05:41;29.80;47.50
4520;DHT22;2272;49.226;8.108;2022-07-18T10:08:09;29.80;47.30
4520;DHT22;2272;49.226;8.108;2022-07-18T10:10:39;30.00;45.90
4520;DHT22;2272;49.226;8.108;2022-07-18T10:13:07;30.00;45.90
4520;DHT22;2272;49.226;8.108;2022-07-18T10:15:35;29.80;46.40
4520;DHT22;2272;49.226;8.108;2022-07-18T10:18:04;29.80;47.00
4520;DHT22;2272;49.226;8.108;2022-07-18T10:20:33;30.10;46.70
4520;DHT22;2272;49.226;8.108;2022-07-18T10:23:16;30.20;46.70
4520;DHT22;2272;49.226;8.108;2022-07-18T10:26:05;30.60;46.30
4520;DHT22;2272;49.226;8.108;2022-07-18T10:28:32;30.70;46.20
4520;DHT22;2272;49.226;8.108;2022-07-18T10:31:12;30.70;45.80
4520;DHT22;2272;49.226;8.108;2022-07-18T10:33:41;30.80;45.80
4520;DHT22;2272;49.226;8.108;2022-07-18T10:36:10;30.80;45.10
4520;DHT22;2272;49.226;8.108;2022-07-18T10:38:38;30.90;44.70
4520;DHT22;2272;49.226;8.108;2022-07-18T10:41:12;31.10;44.80
4520;DHT22;2272;49.226;8.108;2022-07-18T10:43:43;31.20;44.40
4520;DHT22;2272;49.226;8.108;2022-07-18T10:46:11;31.30;43.80
4520;DHT22;2272;49.226;8.108;2022-07-18T10:48:56;31.40;44.10
4520;DHT22;2272;49.226;8.108;2022-07-18T10:51:34;31.40;42.60
4520;DHT22;2272;49.226;8.108;2022-07-18T10:54:08;31.40;41.80
4520;DHT22;2272;49.226;8.108;2022-07-18T10:57:05;31.50;43.40
4520;DHT22;2272;49.226;8.108;2022-07-18T10:59:33;31.60;43.20
4520;DHT22;2272;49.226;8.108;2022-07-18T11:02:04;31.50;42.80
4520;DHT22;2272;49.226;8.108;2022-07-18T11:04:34;31.50;43.00
4520;DHT22;2272;49.226;8.108;2022-07-18T11:07:04;31.70;43.20
4520;DHT22;2272;49.226;8.108;2022-07-18T11:09:32;32.00;43.30
4520;DHT22;2272;49.226;8.108;2022-07-18T11:12:23;32.30;42.50
4520;DHT22;2272;49.226;8.108;2022-07-18T11:15:05;32.40;42.90
4520;DHT22;2272;49.226;8.108;2022-07-18T11:17:58;32.60;42.10
4520;DHT22;2272;49.226;8.108;2022-07-18T11:20:36;32.60;42.20
4520;DHT22;2272;49.226;8.108;2022-07-18T11:23:12;32.60;42.00
4520;DHT22;2272;49.226;8.108;2022-07-18T11:25:40;32.60;42.40
4520;DHT22;2272;49.226;8.108;2022-07-18T11:28:09;32.90;40.80
4520;DHT22;2272;49.226;8.108;2022-07-18T11:30:36;32.90;41.30
4520;DHT22;2272;49.226;8.108;2022-07-18T11:33:03;32.90;41.50
4520;DHT22;2272;49.226;8.108;2022-07-18T11:35:31;32.90;42.00
4520;DHT22;2272;49.226;8.108;2022-07-18T11:38:04;32.90;42.20
4520;DHT22;2272;49.226;8.108;2022-07-18T11:40:30;33.10;41.10
4520;DHT22;2272;49.226;8.108;2022-07-18T11:42:58;33.00;40.70
4520;DHT22;2272;49.226;8.108;2022-07-18T11:45:26;32.90;41.90
4520;DHT22;2272;49.226;8.108;2022-07-18T11:47:53;33.00;42.20
4520;DHT22;2272;49.226;8.108;2022-07-18T11:50:33;33.30;42.10
4520;DHT22;2272;49.226;8.108;2022-07-18T11:53:00;33.50;41.10
4520;DHT22;2272;49.226;8.108;2022-07-18T11:55:32;33.70;41.20
4520;DHT22;2272;49.226;8.108;2022-07-18T11:58:06;33.50;41.30
4520;DHT22;2272;49.226;8.108;2022-07-18T12:00:34;33.50;40.80
4520;DHT22;2272;49.226;8.108;2022-07-18T12:03:01;33.70;40.40
4520;DHT22;2272;49.226;8.108;2022-07-18T12:05:31;33.60;40.20
4520;DHT22;2272;49.226;8.108;2022-07-18T12:07:58;33.70;41.00
4520;DHT22;2272;49.226;8.108;2022-07-18T12:10:25;33.70;41.10
4520;DHT22;2272;49.226;8.108;2022-07-18T12:12:53;33.90;41.20
4520;DHT22;2272;49.226;8.108;2022-07-18T12:15:20;33.80;40.20
4520;DHT22;2272;49.226;8.108;2022-07-18T12:17:48;33.70;40.10
4520;DHT22;2272;49.226;8.108;2022-07-18T12:20:18;33.70;39.50
4520;DHT22;2272;49.226;8.108;2022-07-18T12:23:05;33.70;40.20
4520;DHT22;2272;49.226;8.108;2022-07-18T12:25:54;33.60;40.40
4520;DHT22;2272;49.226;8.108;2022-07-18T12:28:21;33.70;40.10
4520;DHT22;2272;49.226;8.108;2022-07-18T12:30:48;33.80;40.40
4520;DHT22;2272;49.226;8.108;2022-07-18T12:33:16;34.00;40.20
4520;DHT22;2272;49.226;8.108;2022-07-18T12:35:43;33.90;39.80
4520;DHT22;2272;49.226;8.108;2022-07-18T12:38:11;33.80;39.90
4520;DHT22;2272;49.226;8.108;2022-07-18T12:40:41;33.90;39.10
4520;DHT22;2272;49.226;8.108;2022-07-18T12:43:09;33.90;39.80
4520;DHT22;2272;49.226;8.108;2022-07-18T12:45:37;34.20;39.70
4520;DHT22;2272;49.226;8.108;2022-07-18T12:48:06;34.30;41.10
4520;DHT22;2272;49.226;8.108;2022-07-18T12:50:35;34.30;39.60
4520;DHT22;2272;49.226;8.108;2022-07-18T12:53:02;34.40;39.80
4520;DHT22;2272;49.226;8.108;2022-07-18T12:55:29;34.50;39.10
4520;DHT22;2272;49.226;8.108;2022-07-18T12:57:56;34.60;38.50
4520;DHT22;2272;49.226;8.108;2022-07-18T13:00:22;34.60;39.10
4520;DHT22;2272;49.226;8.108;2022-07-18T13:02:49;34.30;38.60
4520;DHT22;2272;49.226;8.108;2022-07-18T13:05:16;34.30;38.70
4520;DHT22;2272;49.226;8.108;2022-07-18T13:07:44;34.30;38.40
4520;DHT22;2272;49.226;8.108;2022-07-18T13:10:10;34.40;38.30
4520;DHT22;2272;49.226;8.108;2022-07-18T13:12:37;34.50;38.80
4520;DHT22;2272;49.226;8.108;2022-07-18T13:15:05;34.50;38.70
4520;DHT22;2272;49.226;8.108;2022-07-18T13:17:32;34.40;38.50
4520;DHT22;2272;49.226;8.108;2022-07-18T13:19:59;34.30;39.30
4520;DHT22;2272;49.226;8.108;2022-07-18T13:22:25;34.40;39.30
4520;DHT22;2272;49.226;8.108;2022-07-18T13:24:53;34.70;39.20
4520;DHT22;2272;49.226;8.108;2022-07-18T13:27:20;34.70;38.60
4520;DHT22;2272;49.226;8.108;2022-07-18T13:29:48;34.70;38.50
4520;DHT22;2272;49.226;8.108;2022-07-18T13:32:15;34.70;38.30
4520;DHT22;2272;49.226;8.108;2022-07-18T13:34:42;34.70;39.00
4520;DHT22;2272;49.226;8.108;2022-07-18T13:37:08;34.50;38.00
4520;DHT22;2272;49.226;8.108;2022-07-18T13:39:35;34.50;38.60
4520;DHT22;2272;49.226;8.108;2022-07-18T13:42:03;34.50;38.80
4520;DHT22;2272;49.226;8.108;2022-07-18T13:44:30;34.50;39.00
4520;DHT22;2272;49.226;8.108;2022-07-18T13:46:57;34.40;38.80
4520;DHT22;2272;49.226;8.108;2022-07-18T13:49:24;34.40;38.80
4520;DHT22;2272;49.226;8.108;2022-07-18T13:51:51;34.50;38.80
4520;DHT22;2272;49.226;8.108;2022-07-18T13:54:17;34.70;39.20
4520;DHT22;2272;49.226;8.108;2022-07-18T13:56:44;35.10;39.70
4520;DHT22;2272;49.226;8.108;2022-07-18T13:59:12;35.40;38.10
4520;DHT22;2272;49.226;8.108;2022-07-18T14:01:40;35.60;38.00
4520;DHT22;2272;49.226;8.108;2022-07-18T14:04:07;35.80;37.70
4520;DHT22;2272;49.226;8.108;2022-07-18T14:06:34;35.80;37.60
4520;DHT22;2272;49.226;8.108;2022-07-18T14:09:02;36.00;37.30
4520;DHT22;2272;49.226;8.108;2022-07-18T14:11:28;36.30;37.10
4520;DHT22;2272;49.226;8.108;2022-07-18T14:13:57;36.40;37.90
4520;DHT22;2272;49.226;8.108;2022-07-18T14:16:25;36.50;37.30
4520;DHT22;2272;49.226;8.108;2022-07-18T14:18:52;36.40;38.20
4520;DHT22;2272;49.226;8.108;2022-07-18T14:21:19;36.30;37.50
4520;DHT22;2272;49.226;8.108;2022-07-18T14:23:46;36.20;38.00
4520;DHT22;2272;49.226;8.108;2022-07-18T14:26:13;36.20;37.90
4520;DHT22;2272;49.226;8.108;2022-07-18T14:28:39;36.20;37.00
4520;DHT22;2272;49.226;8.108;2022-07-18T14:31:06;36.00;37.30
4520;DHT22;2272;49.226;8.108;2022-07-18T14:33:34;36.10;37.40
4520;DHT22;2272;49.226;8.108;2022-07-18T14:36:01;36.00;37.30
4520;DHT22;2272;49.226;8.108;2022-07-18T14:38:28;35.90;38.00
4520;DHT22;2272;49.226;8.108;2022-07-18T14:40:54;36.00;38.20
4520;DHT22;2272;49.226;8.108;2022-07-18T14:43:21;36.30;37.70
4520;DHT22;2272;49.226;8.108;2022-07-18T14:45:48;36.30;37.30
4520;DHT22;2272;49.226;8.108;2022-07-18T14:48:17;36.20;37.50
4520;DHT22;2272;49.226;8.108;2022-07-18T14:50:45;36.10;37.80
4520;DHT22;2272;49.226;8.108;2022-07-18T14:53:12;35.90;37.70
4520;DHT22;2272;49.226;8.108;2022-07-18T14:55:38;35.70;37.80
4520;DHT22;2272;49.226;8.108;2022-07-18T14:58:05;35.60;38.00
4520;DHT22;2272;49.226;8.108;2022-07-18T15:00:32;35.40;37.90
4520;DHT22;2272;49.226;8.108;2022-07-18T15:02:59;35.60;38.20
4520;DHT22;2272;49.226;8.108;2022-07-18T15:05:26;35.70;38.00
4520;DHT22;2272;49.226;8.108;2022-07-18T15:07:54;35.60;37.70
4520;DHT22;2272;49.226;8.108;2022-07-18T15:10:20;35.50;37.50
4520;DHT22;2272;49.226;8.108;2022-07-18T15:12:47;35.60;37.60
4520;DHT22;2272;49.226;8.108;2022-07-18T15:15:14;35.70;38.00
4520;DHT22;2272;49.226;8.108;2022-07-18T15:17:41;35.70;37.60
4520;DHT22;2272;49.226;8.108;2022-07-18T15:20:08;35.50;37.60
4520;DHT22;2272;49.226;8.108;2022-07-18T15:22:36;35.50;37.20
4520;DHT22;2272;49.226;8.108;2022-07-18T15:25:05;35.40;37.30
4520;DHT22;2272;49.226;8.108;2022-07-18T15:27:32;35.40;38.10
4520;DHT22;2272;49.226;8.108;2022-07-18T15:29:59;35.50;38.30
4520;DHT22;2272;49.226;8.108;2022-07-18T15:32:26;35.50;37.80
4520;DHT22;2272;49.226;8.108;2022-07-18T15:34:52;35.60;38.10
4520;DHT22;2272;49.226;8.108;2022-07-18T15:37:19;35.70;37.20
4520;DHT22;2272;49.226;8.108;2022-07-18T15:39:46;35.80;36.90
4520;DHT22;2272;49.226;8.108;2022-07-18T15:42:14;35.90;37.30
4520;DHT22;2272;49.226;8.108;2022-07-18T15:44:40;36.00;37.00
4520;DHT22;2272;49.226;8.108;2022-07-18T15:47:08;35.90;37.30
4520;DHT22;2272;49.226;8.108;2022-07-18T15:49:36;35.70;37.80
4520;DHT22;2272;49.226;8.108;2022-07-18T15:52:05;35.70;37.70
4520;DHT22;2272;49.226;8.108;2022-07-18T15:54:33;35.70;37.80
4520;DHT22;2272;49.226;8.108;2022-07-18T15:56:59;35.70;37.80
4520;DHT22;2272;49.226;8.108;2022-07-18T15:59:28;35.80;38.00
4520;DHT22;2272;49.226;8.108;2022-07-18T16:01:55;35.70;38.00
4520;DHT22;2272;49.226;8.108;2022-07-18T16:04:22;35.80;38.00
4520;DHT22;2272;49.226;8.108;2022-07-18T16:06:48;35.90;38.00
4520;DHT22;2272;49.226;8.108;2022-07-18T16:09:17;35.90;37.60
4520;DHT22;2272;49.226;8.108;2022-07-18T16:11:45;35.90;37.70